sensor_id;sensor_type;location;lat;lon;timestamp;temperature;humidity
32293;DHT22;43233;48.608;8.838;2023-03-16T00:01:45;0.90;93.00
32293;DHT22;43233;48.608;8.838;2023-03-16T00:04:12;0.90;92.70
32293;DHT22;43233;48.608;8.838;2023-03-16T00:09:47;0.90;91.80
32293;DHT22;43233;48.608;8.838;2023-03-16T00:12:16;0.90;91.80
32293;DHT22;43233;48.608;8.838;2023-03-16T00:14:43;0.80;91.40
32293;DHT22;43233;48.608;8.838;2023-03-16T00:17:11;0.80;92.20
32293;DHT22;43233;48.608;8.838;2023-03-16T00:20:08;0.80;92.40
32293;DHT22;43233;48.608;8.838;2023-03-16T00:22:34;0.80;92.10
32293;DHT22;43233;48.608;8.838;2023-03-16T00:25:00;0.70;92.40
32293;DHT22;43233;48.608;8.838;2023-03-16T00:27:26;0.70;92.20
32293;DHT22;43233;48.608;8.838;2023-03-16T00:29:52;0.70;91.60
32293;DHT22;43233;48.608;8.838;2023-03-16T00:32:26;0.70;91.80
32293;DHT22;43233;48.608;8.838;2023-03-16T00:34:52;0.70;92.30
32293;DHT22;43233;48.608;8.838;2023-03-16T00:37:19;0.60;92.70
32293;DHT22;43233;48.608;8.838;2023-03-16T00:39:48;0.60;92.80
32293;DHT22;43233;48.608;8.838;2023-03-16T00:42:15;0.60;92.00
32293;DHT22;43233;48.608;8.838;2023-03-16T00:44:42;0.60;92.00
32293;DHT22;43233;48.608;8.838;2023-03-16T00:47:08;0.60;92.00
32293;DHT22;43233;48.608;8.838;2023-03-16T00:49:35;0.60;92.00
32293;DHT22;43233;48.608;8.838;2023-03-16T00:52:02;0.60;91.90
32293;DHT22;43233;48.608;8.838;2023-03-16T00:54:28;0.60;91.90
32293;DHT22;43233;48.608;8.838;2023-03-16T00:56:54;0.50;92.00
32293;DHT22;43233;48.608;8.838;2023-03-16T00:59:20;0.60;91.90
32293;DHT22;43233;48.608;8.838;2023-03-16T01:01:46;0.40;92.40
32293;DHT22;43233;48.608;8.838;2023-03-16T01:04:12;0.20;93.50
32293;DHT22;43233;48.608;8.838;2023-03-16T01:06:38;0.20;94.40
32293;DHT22;43233;48.608;8.838;2023-03-16T01:09:06;0.10;94.70
32293;DHT22;43233;48.608;8.838;2023-03-16T01:11:32;0.00;95.20
32293;DHT22;43233;48.608;8.838;2023-03-16T01:13:58;-0.10;96.20
32293;DHT22;43233;48.608;8.838;2023-03-16T01:16:24;-0.10;97.10
32293;DHT22;43233;48.608;8.838;2023-03-16T01:18:51;-0.10;96.50
32293;DHT22;43233;48.608;8.838;2023-03-16T01:21:17;0.00;96.30
32293;DHT22;43233;48.608;8.838;2023-03-16T01:23:43;0.00;95.40
32293;DHT22;43233;48.608;8.838;2023-03-16T01:26:09;0.00;95.30
32293;DHT22;43233;48.608;8.838;2023-03-16T01:28:36;0.10;95.00
32293;DHT22;43233;48.608;8.838;2023-03-16T01:31:12;0.10;95.20
32293;DHT22;43233;48.608;8.838;2023-03-16T01:33:42;0.10;95.40
32293;DHT22;43233;48.608;8.838;2023-03-16T01:36:13;0.20;95.30
32293;DHT22;43233;48.608;8.838;2023-03-16T01:38:39;0.20;95.60
32293;DHT22;43233;48.608;8.838;2023-03-16T01:41:05;0.20;95.40
32293;DHT22;43233;48.608;8.838;2023-03-16T01:43:33;0.30;95.20
32293;DHT22;43233;48.608;8.838;2023-03-16T01:51:03;0.30;94.60
32293;DHT22;43233;48.608;8.838;2023-03-16T01:53:29;0.30;95.20
32293;DHT22;43233;48.608;8.838;2023-03-16T01:55:59;0.30;95.50
32293;DHT22;43233;48.608;8.838;2023-03-16T01:58:27;0.30;95.80
32293;DHT22;43233;48.608;8.838;2023-03-16T02:00:52;0.30;95.80
32293;DHT22;43233;48.608;8.838;2023-03-16T02:03:20;0.30;95.80
32293;DHT22;43233;48.608;8.838;2023-03-16T02:05:58;0.30;96.10
32293;DHT22;43233;48.608;8.838;2023-03-16T02:08:26;0.20;95.80
32293;DHT22;43233;48.608;8.838;2023-03-16T02:10:53;0.20;96.20
32293;DHT22;43233;48.608;8.838;2023-03-16T02:13:22;0.20;95.70
32293;DHT22;43233;48.608;8.838;2023-03-16T02:15:50;0.20;95.00
32293;DHT22;43233;48.608;8.838;2023-03-16T02:18:16;0.10;96.10
32293;DHT22;43233;48.608;8.838;2023-03-16T02:23:31;0.10;96.30
32293;DHT22;43233;48.608;8.838;2023-03-16T02:31:18;0.30;96.30
32293;DHT22;43233;48.608;8.838;2023-03-16T02:33:44;0.30;96.40
32293;DHT22;43233;48.608;8.838;2023-03-16T02:36:13;0.30;96.10
32293;DHT22;43233;48.608;8.838;2023-03-16T02:38:39;0.30;96.00
32293;DHT22;43233;48.608;8.838;2023-03-16T02:41:14;0.30;95.90
32293;DHT22;43233;48.608;8.838;2023-03-16T02:43:53;0.30;95.50
32293;DHT22;43233;48.608;8.838;2023-03-16T02:46:22;0.30;95.50
32293;DHT22;43233;48.608;8.838;2023-03-16T02:49:04;0.30;95.50
32293;DHT22;43233;48.608;8.838;2023-03-16T02:51:31;0.30;95.80
32293;DHT22;43233;48.608;8.838;2023-03-16T02:53:57;0.30;96.20
32293;DHT22;43233;48.608;8.838;2023-03-16T02:56:23;0.30;96.50
32293;DHT22;43233;48.608;8.838;2023-03-16T02:58:48;0.30;96.80
32293;DHT22;43233;48.608;8.838;2023-03-16T03:01:14;0.40;97.10
32293;DHT22;43233;48.608;8.838;2023-03-16T03:03:40;0.40;97.20
32293;DHT22;43233;48.608;8.838;2023-03-16T03:06:06;0.40;97.40
32293;DHT22;43233;48.608;8.838;2023-03-16T03:08:32;0.30;97.80
32293;DHT22;43233;48.608;8.838;2023-03-16T03:10:58;0.30;98.10
32293;DHT22;43233;48.608;8.838;2023-03-16T03:13:24;0.40;98.50
32293;DHT22;43233;48.608;8.838;2023-03-16T03:15:49;0.40;98.30
32293;DHT22;43233;48.608;8.838;2023-03-16T03:18:15;0.40;98.10
32293;DHT22;43233;48.608;8.838;2023-03-16T03:20:40;0.30;98.40
32293;DHT22;43233;48.608;8.838;2023-03-16T03:23:06;0.30;98.30
32293;DHT22;43233;48.608;8.838;2023-03-16T03:25:32;0.30;98.20
32293;DHT22;43233;48.608;8.838;2023-03-16T03:28:00;0.20;97.80
32293;DHT22;43233;48.608;8.838;2023-03-16T03:30:27;0.20;97.70
32293;DHT22;43233;48.608;8.838;2023-03-16T03:32:53;0.10;97.50
32293;DHT22;43233;48.608;8.838;2023-03-16T03:35:19;0.10;98.50
32293;DHT22;43233;48.608;8.838;2023-03-16T03:37:46;0.00;98.60
32293;DHT22;43233;48.608;8.838;2023-03-16T03:40:14;0.00;99.40
32293;DHT22;43233;48.608;8.838;2023-03-16T03:42:41;0.10;99.20
32293;DHT22;43233;48.608;8.838;2023-03-16T03:45:08;0.00;98.50
32293;DHT22;43233;48.608;8.838;2023-03-16T03:47:33;0.00;99.00
32293;DHT22;43233;48.608;8.838;2023-03-16T03:49:59;0.00;98.60
32293;DHT22;43233;48.608;8.838;2023-03-16T03:52:25;0.00;98.60
32293;DHT22;43233;48.608;8.838;2023-03-16T03:54:52;0.00;98.50
32293;DHT22;43233;48.608;8.838;2023-03-16T03:57:17;-0.10;98.30
32293;DHT22;43233;48.608;8.838;2023-03-16T03:59:43;-0.10;98.70
32293;DHT22;43233;48.608;8.838;2023-03-16T04:02:09;-0.10;98.80
32293;DHT22;43233;48.608;8.838;2023-03-16T04:04:35;-0.10;98.70
32293;DHT22;43233;48.608;8.838;2023-03-16T04:07:01;-0.20;99.00
32293;DHT22;43233;48.608;8.838;2023-03-16T04:09:27;-0.30;98.20
32293;DHT22;43233;48.608;8.838;2023-03-16T04:11:52;-0.40;99.00
32293;DHT22;43233;48.608;8.838;2023-03-16T04:14:22;-0.40;98.90
32293;DHT22;43233;48.608;8.838;2023-03-16T04:16:47;-0.40;98.70
32293;DHT22;43233;48.608;8.838;2023-03-16T04:19:13;-0.40;98.40
32293;DHT22;43233;48.608;8.838;2023-03-16T04:21:38;-0.30;98.60
32293;DHT22;43233;48.608;8.838;2023-03-16T04:24:04;-0.30;98.00
32293;DHT22;43233;48.608;8.838;2023-03-16T04:26:31;-0.30;97.60
32293;DHT22;43233;48.608;8.838;2023-03-16T04:28:57;-0.40;96.70
32293;DHT22;43233;48.608;8.838;2023-03-16T04:31:23;-0.50;95.40
32293;DHT22;43233;48.608;8.838;2023-03-16T04:33:48;-0.50;95.70
32293;DHT22;43233;48.608;8.838;2023-03-16T04:36:14;-0.50;95.20
32293;DHT22;43233;48.608;8.838;2023-03-16T04:38:40;-0.50;94.50
32293;DHT22;43233;48.608;8.838;2023-03-16T04:41:06;-0.50;94.10
32293;DHT22;43233;48.608;8.838;2023-03-16T04:43:33;-0.60;93.60
32293;DHT22;43233;48.608;8.838;2023-03-16T04:46:00;-0.60;93.50
32293;DHT22;43233;48.608;8.838;2023-03-16T04:48:27;-0.50;93.90
32293;DHT22;43233;48.608;8.838;2023-03-16T04:50:53;-0.60;93.40
32293;DHT22;43233;48.608;8.838;2023-03-16T04:53:19;-0.60;93.00
32293;DHT22;43233;48.608;8.838;2023-03-16T04:55:45;-0.60;93.00
32293;DHT22;43233;48.608;8.838;2023-03-16T04:58:11;-0.60;92.70
32293;DHT22;43233;48.608;8.838;2023-03-16T05:00:39;-0.60;92.90
32293;DHT22;43233;48.608;8.838;2023-03-16T05:03:06;-0.60;92.40
32293;DHT22;43233;48.608;8.838;2023-03-16T05:05:35;-0.60;92.70
32293;DHT22;43233;48.608;8.838;2023-03-16T05:08:01;-0.60;92.40
32293;DHT22;43233;48.608;8.838;2023-03-16T05:10:29;-0.70;92.00
32293;DHT22;43233;48.608;8.838;2023-03-16T05:12:54;-0.70;92.10
32293;DHT22;43233;48.608;8.838;2023-03-16T05:15:20;-0.80;91.40
32293;DHT22;43233;48.608;8.838;2023-03-16T05:17:46;-1.00;92.50
32293;DHT22;43233;48.608;8.838;2023-03-16T05:20:12;-1.00;93.00
32293;DHT22;43233;48.608;8.838;2023-03-16T05:22:43;-1.00;92.50
32293;DHT22;43233;48.608;8.838;2023-03-16T05:25:09;-1.00;92.80
32293;DHT22;43233;48.608;8.838;2023-03-16T05:27:40;-1.00;92.70
32293;DHT22;43233;48.608;8.838;2023-03-16T05:30:07;-1.00;92.60
32293;DHT22;43233;48.608;8.838;2023-03-16T05:32:33;-0.90;92.40
32293;DHT22;43233;48.608;8.838;2023-03-16T05:34:58;-0.90;92.20
32293;DHT22;43233;48.608;8.838;2023-03-16T05:37:24;-1.00;91.60
32293;DHT22;43233;48.608;8.838;2023-03-16T05:39:49;-1.00;91.00
32293;DHT22;43233;48.608;8.838;2023-03-16T05:42:15;-1.10;91.70
32293;DHT22;43233;48.608;8.838;2023-03-16T05:44:40;-1.10;92.10
32293;DHT22;43233;48.608;8.838;2023-03-16T05:47:06;-1.20;92.00
32293;DHT22;43233;48.608;8.838;2023-03-16T05:49:32;-1.10;92.50
32293;DHT22;43233;48.608;8.838;2023-03-16T05:51:57;-1.10;92.80
32293;DHT22;43233;48.608;8.838;2023-03-16T05:54:23;-1.10;92.60
32293;DHT22;43233;48.608;8.838;2023-03-16T05:56:49;-1.10;92.60
32293;DHT22;43233;48.608;8.838;2023-03-16T05:59:14;-1.10;92.60
32293;DHT22;43233;48.608;8.838;2023-03-16T06:01:42;-1.00;92.70
32293;DHT22;43233;48.608;8.838;2023-03-16T06:04:07;-1.00;92.60
32293;DHT22;43233;48.608;8.838;2023-03-16T06:06:33;-1.00;92.60
32293;DHT22;43233;48.608;8.838;2023-03-16T06:08:59;-0.90;92.70
32293;DHT22;43233;48.608;8.838;2023-03-16T06:11:25;-0.90;92.50
32293;DHT22;43233;48.608;8.838;2023-03-16T06:13:51;-0.90;92.40
32293;DHT22;43233;48.608;8.838;2023-03-16T06:16:16;-0.90;92.50
32293;DHT22;43233;48.608;8.838;2023-03-16T06:18:42;-0.90;92.50
32293;DHT22;43233;48.608;8.838;2023-03-16T06:21:08;-0.90;92.30
32293;DHT22;43233;48.608;8.838;2023-03-16T06:23:34;-0.90;92.70
32293;DHT22;43233;48.608;8.838;2023-03-16T06:26:00;-1.00;92.80
32293;DHT22;43233;48.608;8.838;2023-03-16T06:28:26;-1.00;93.20
32293;DHT22;43233;48.608;8.838;2023-03-16T06:30:56;-1.10;94.10
32293;DHT22;43233;48.608;8.838;2023-03-16T06:33:22;-1.00;94.40
32293;DHT22;43233;48.608;8.838;2023-03-16T06:35:48;-1.00;94.70
32293;DHT22;43233;48.608;8.838;2023-03-16T06:38:15;-1.00;95.60
32293;DHT22;43233;48.608;8.838;2023-03-16T06:40:41;-0.90;95.70
32293;DHT22;43233;48.608;8.838;2023-03-16T06:43:07;-0.80;95.90
32293;DHT22;43233;48.608;8.838;2023-03-16T06:45:33;-0.80;96.30
32293;DHT22;43233;48.608;8.838;2023-03-16T06:47:59;-0.70;97.50
32293;DHT22;43233;48.608;8.838;2023-03-16T06:50:25;-0.60;98.60
32293;DHT22;43233;48.608;8.838;2023-03-16T06:52:51;-0.50;99.10
32293;DHT22;43233;48.608;8.838;2023-03-16T06:55:16;-0.40;99.90
32293;DHT22;43233;48.608;8.838;2023-03-16T06:57:42;-0.30;99.90
32293;DHT22;43233;48.608;8.838;2023-03-16T07:00:11;-0.20;99.90
32293;DHT22;43233;48.608;8.838;2023-03-16T07:02:38;-0.10;99.90
32293;DHT22;43233;48.608;8.838;2023-03-16T07:05:05;0.00;99.80
32293;DHT22;43233;48.608;8.838;2023-03-16T07:07:31;0.10;99.30
32293;DHT22;43233;48.608;8.838;2023-03-16T07:09:58;0.20;99.30
32293;DHT22;43233;48.608;8.838;2023-03-16T07:12:23;0.20;99.20
32293;DHT22;43233;48.608;8.838;2023-03-16T07:14:49;0.30;99.20
32293;DHT22;43233;48.608;8.838;2023-03-16T07:17:15;0.30;99.90
32293;DHT22;43233;48.608;8.838;2023-03-16T07:19:41;0.40;99.80
32293;DHT22;43233;48.608;8.838;2023-03-16T07:22:08;0.50;99.90
32293;DHT22;43233;48.608;8.838;2023-03-16T07:24:33;0.60;99.90
32293;DHT22;43233;48.608;8.838;2023-03-16T07:26:59;0.70;99.90
32293;DHT22;43233;48.608;8.838;2023-03-16T07:29:26;0.80;99.90
32293;DHT22;43233;48.608;8.838;2023-03-16T07:31:52;0.90;99.60
32293;DHT22;43233;48.608;8.838;2023-03-16T07:34:18;1.00;99.10
32293;DHT22;43233;48.608;8.838;2023-03-16T07:36:44;1.10;98.80
32293;DHT22;43233;48.608;8.838;2023-03-16T07:39:10;1.20;98.70
32293;DHT22;43233;48.608;8.838;2023-03-16T07:41:38;1.30;98.20
32293;DHT22;43233;48.608;8.838;2023-03-16T07:44:04;1.40;97.70
32293;DHT22;43233;48.608;8.838;2023-03-16T07:46:30;1.50;97.40
32293;DHT22;43233;48.608;8.838;2023-03-16T07:48:57;1.60;96.70
32293;DHT22;43233;48.608;8.838;2023-03-16T07:51:22;1.70;96.20
32293;DHT22;43233;48.608;8.838;2023-03-16T07:53:48;1.80;95.70
32293;DHT22;43233;48.608;8.838;2023-03-16T07:56:14;1.80;95.20
32293;DHT22;43233;48.608;8.838;2023-03-16T07:58:40;1.90;94.80
32293;DHT22;43233;48.608;8.838;2023-03-16T08:01:06;2.00;94.30
32293;DHT22;43233;48.608;8.838;2023-03-16T08:03:32;2.10;93.90
32293;DHT22;43233;48.608;8.838;2023-03-16T08:05:58;2.20;93.20
32293;DHT22;43233;48.608;8.838;2023-03-16T08:08:23;2.20;92.70
32293;DHT22;43233;48.608;8.838;2023-03-16T08:10:50;2.30;92.20
32293;DHT22;43233;48.608;8.838;2023-03-16T08:13:19;2.30;92.00
32293;DHT22;43233;48.608;8.838;2023-03-16T08:15:46;2.40;91.90
32293;DHT22;43233;48.608;8.838;2023-03-16T08:18:11;2.50;91.70
32293;DHT22;43233;48.608;8.838;2023-03-16T08:20:37;2.60;92.00
32293;DHT22;43233;48.608;8.838;2023-03-16T08:23:03;2.60;91.30
32293;DHT22;43233;48.608;8.838;2023-03-16T08:25:28;2.80;91.70
32293;DHT22;43233;48.608;8.838;2023-03-16T08:27:54;2.90;90.80
32293;DHT22;43233;48.608;8.838;2023-03-16T08:30:19;3.00;90.70
32293;DHT22;43233;48.608;8.838;2023-03-16T08:32:46;3.10;90.70
32293;DHT22;43233;48.608;8.838;2023-03-16T08:35:13;3.20;90.10
32293;DHT22;43233;48.608;8.838;2023-03-16T08:37:40;3.20;89.80
32293;DHT22;43233;48.608;8.838;2023-03-16T08:40:06;3.30;90.30
32293;DHT22;43233;48.608;8.838;2023-03-16T08:42:35;3.50;89.10
32293;DHT22;43233;48.608;8.838;2023-03-16T08:45:04;3.70;87.10
32293;DHT22;43233;48.608;8.838;2023-03-16T08:47:35;3.70;86.80
32293;DHT22;43233;48.608;8.838;2023-03-16T08:50:02;3.70;87.20
32293;DHT22;43233;48.608;8.838;2023-03-16T08:52:27;3.90;84.70
32293;DHT22;43233;48.608;8.838;2023-03-16T08:54:53;3.90;82.60
32293;DHT22;43233;48.608;8.838;2023-03-16T08:57:20;3.90;83.50
32293;DHT22;43233;48.608;8.838;2023-03-16T08:59:45;4.00;83.50
32293;DHT22;43233;48.608;8.838;2023-03-16T09:02:12;4.10;82.10
32293;DHT22;43233;48.608;8.838;2023-03-16T09:04:38;4.20;82.90
32293;DHT22;43233;48.608;8.838;2023-03-16T09:07:04;4.30;81.40
32293;DHT22;43233;48.608;8.838;2023-03-16T09:09:30;4.40;81.00
32293;DHT22;43233;48.608;8.838;2023-03-16T09:11:57;4.50;79.10
32293;DHT22;43233;48.608;8.838;2023-03-16T09:14:23;4.50;78.10
32293;DHT22;43233;48.608;8.838;2023-03-16T09:16:50;4.70;75.40
32293;DHT22;43233;48.608;8.838;2023-03-16T09:19:16;4.80;75.10
32293;DHT22;43233;48.608;8.838;2023-03-16T09:21:42;4.80;75.70
32293;DHT22;43233;48.608;8.838;2023-03-16T09:24:09;4.80;74.40
32293;DHT22;43233;48.608;8.838;2023-03-16T09:26:35;4.80;75.60
32293;DHT22;43233;48.608;8.838;2023-03-16T09:29:02;5.00;75.50
32293;DHT22;43233;48.608;8.838;2023-03-16T09:31:28;5.10;73.70
32293;DHT22;43233;48.608;8.838;2023-03-16T09:33:54;5.20;72.60
32293;DHT22;43233;48.608;8.838;2023-03-16T09:36:19;5.40;71.10
32293;DHT22;43233;48.608;8.838;2023-03-16T09:38:45;5.50;71.10
32293;DHT22;43233;48.608;8.838;2023-03-16T09:44:09;5.70;68.10
32293;DHT22;43233;48.608;8.838;2023-03-16T09:46:44;5.80;69.40
32293;DHT22;43233;48.608;8.838;2023-03-16T09:49:41;5.90;69.10
32293;DHT22;43233;48.608;8.838;2023-03-16T09:52:41;5.90;68.40
32293;DHT22;43233;48.608;8.838;2023-03-16T09:55:30;5.90;68.80
32293;DHT22;43233;48.608;8.838;2023-03-16T09:57:59;6.00;68.90
32293;DHT22;43233;48.608;8.838;2023-03-16T10:00:28;6.10;68.50
32293;DHT22;43233;48.608;8.838;2023-03-16T10:05:38;6.40;66.30
32293;DHT22;43233;48.608;8.838;2023-03-16T10:08:22;6.70;62.30
32293;DHT22;43233;48.608;8.838;2023-03-16T10:11:17;6.60;63.70
32293;DHT22;43233;48.608;8.838;2023-03-16T10:15:07;6.60;66.20
32293;DHT22;43233;48.608;8.838;2023-03-16T10:17:18;6.70;64.90
32293;DHT22;43233;48.608;8.838;2023-03-16T10:20:01;6.90;64.10
32293;DHT22;43233;48.608;8.838;2023-03-16T10:22:32;7.00;62.90
32293;DHT22;43233;48.608;8.838;2023-03-16T10:27:46;7.40;60.80
32293;DHT22;43233;48.608;8.838;2023-03-16T10:30:34;7.50;60.90
32293;DHT22;43233;48.608;8.838;2023-03-16T10:33:03;7.50;60.80
32293;DHT22;43233;48.608;8.838;2023-03-16T10:38:08;7.70;60.20
32293;DHT22;43233;48.608;8.838;2023-03-16T10:40:51;7.90;60.70
32293;DHT22;43233;48.608;8.838;2023-03-16T10:43:17;8.00;59.30
32293;DHT22;43233;48.608;8.838;2023-03-16T10:45:44;8.20;58.60
32293;DHT22;43233;48.608;8.838;2023-03-16T10:48:13;8.20;59.30
32293;DHT22;43233;48.608;8.838;2023-03-16T10:50:43;8.40;59.00
32293;DHT22;43233;48.608;8.838;2023-03-16T10:53:26;8.60;58.50
32293;DHT22;43233;48.608;8.838;2023-03-16T10:56:08;8.80;57.30
32293;DHT22;43233;48.608;8.838;2023-03-16T10:58:40;8.90;59.50
32293;DHT22;43233;48.608;8.838;2023-03-16T11:01:26;9.00;58.40
32293;DHT22;43233;48.608;8.838;2023-03-16T11:03:54;9.20;58.00
32293;DHT22;43233;48.608;8.838;2023-03-16T11:06:22;9.30;58.60
32293;DHT22;43233;48.608;8.838;2023-03-16T11:08:50;9.50;58.50
32293;DHT22;43233;48.608;8.838;2023-03-16T11:11:24;9.70;56.30
32293;DHT22;43233;48.608;8.838;2023-03-16T11:13:58;9.90;55.70
32293;DHT22;43233;48.608;8.838;2023-03-16T11:18:54;10.50;53.90
32293;DHT22;43233;48.608;8.838;2023-03-16T11:21:38;10.60;55.70
32293;DHT22;43233;48.608;8.838;2023-03-16T11:24:15;10.80;55.00
32293;DHT22;43233;48.608;8.838;2023-03-16T11:26:44;10.90;54.60
32293;DHT22;43233;48.608;8.838;2023-03-16T11:31:52;11.40;50.00
32293;DHT22;43233;48.608;8.838;2023-03-16T11:34:26;11.40;51.80
32293;DHT22;43233;48.608;8.838;2023-03-16T11:37:13;11.60;50.50
32293;DHT22;43233;48.608;8.838;2023-03-16T11:40:07;11.70;49.30
32293;DHT22;43233;48.608;8.838;2023-03-16T11:42:50;11.70;49.90
32293;DHT22;43233;48.608;8.838;2023-03-16T11:45:50;11.90;48.10
32293;DHT22;43233;48.608;8.838;2023-03-16T12:06:01;13.20;46.20
32293;DHT22;43233;48.608;8.838;2023-03-16T12:08:58;13.60;44.00
32293;DHT22;43233;48.608;8.838;2023-03-16T12:11:29;13.90;43.40
32293;DHT22;43233;48.608;8.838;2023-03-16T12:17:24;14.30;43.30
32293;DHT22;43233;48.608;8.838;2023-03-16T12:22:27;14.60;40.20
32293;DHT22;43233;48.608;8.838;2023-03-16T12:24:54;14.70;40.50
32293;DHT22;43233;48.608;8.838;2023-03-16T12:27:24;15.00;40.00
32293;DHT22;43233;48.608;8.838;2023-03-16T12:38:43;15.90;38.10
32293;DHT22;43233;48.608;8.838;2023-03-16T12:41:40;16.00;38.00
32293;DHT22;43233;48.608;8.838;2023-03-16T12:44:31;16.10;38.60
32293;DHT22;43233;48.608;8.838;2023-03-16T12:47:10;16.30;36.30
32293;DHT22;43233;48.608;8.838;2023-03-16T12:49:39;16.30;37.10
32293;DHT22;43233;48.608;8.838;2023-03-16T12:52:08;16.50;35.60
32293;DHT22;43233;48.608;8.838;2023-03-16T12:54:34;16.60;34.90
32293;DHT22;43233;48.608;8.838;2023-03-16T12:57:05;16.60;35.60
32293;DHT22;43233;48.608;8.838;2023-03-16T12:59:55;16.40;36.80
32293;DHT22;43233;48.608;8.838;2023-03-16T13:02:30;16.40;34.00
32293;DHT22;43233;48.608;8.838;2023-03-16T13:04:59;16.70;34.20
32293;DHT22;43233;48.608;8.838;2023-03-16T13:07:28;17.20;36.90
32293;DHT22;43233;48.608;8.838;2023-03-16T13:10:02;17.70;36.30
32293;DHT22;43233;48.608;8.838;2023-03-16T13:12:31;18.30;32.80
32293;DHT22;43233;48.608;8.838;2023-03-16T13:15:26;18.70;31.30
32293;DHT22;43233;48.608;8.838;2023-03-16T13:18:33;18.80;31.10
32293;DHT22;43233;48.608;8.838;2023-03-16T13:21:00;19.00;32.70
32293;DHT22;43233;48.608;8.838;2023-03-16T13:23:59;19.40;31.40
32293;DHT22;43233;48.608;8.838;2023-03-16T13:26:38;19.80;30.50
32293;DHT22;43233;48.608;8.838;2023-03-16T13:31:51;21.00;29.00
32293;DHT22;43233;48.608;8.838;2023-03-16T13:34:23;21.60;28.70
32293;DHT22;43233;48.608;8.838;2023-03-16T13:36:54;21.90;27.10
32293;DHT22;43233;48.608;8.838;2023-03-16T13:39:23;22.30;28.70
32293;DHT22;43233;48.608;8.838;2023-03-16T13:42:18;22.60;26.00
32293;DHT22;43233;48.608;8.838;2023-03-16T13:44:45;22.90;25.00
32293;DHT22;43233;48.608;8.838;2023-03-16T13:47:13;23.20;24.90
32293;DHT22;43233;48.608;8.838;2023-03-16T13:49:48;23.50;23.40
32293;DHT22;43233;48.608;8.838;2023-03-16T13:52:28;23.80;23.70
32293;DHT22;43233;48.608;8.838;2023-03-16T13:54:56;24.20;23.70
32293;DHT22;43233;48.608;8.838;2023-03-16T13:57:27;24.40;20.40
32293;DHT22;43233;48.608;8.838;2023-03-16T14:00:21;24.50;22.60
32293;DHT22;43233;48.608;8.838;2023-03-16T14:02:57;24.70;21.90
32293;DHT22;43233;48.608;8.838;2023-03-16T14:07:53;25.10;20.10
32293;DHT22;43233;48.608;8.838;2023-03-16T14:10:20;25.30;20.00
32293;DHT22;43233;48.608;8.838;2023-03-16T14:12:53;25.70;20.90
32293;DHT22;43233;48.608;8.838;2023-03-16T14:15:20;26.00;21.40
32293;DHT22;43233;48.608;8.838;2023-03-16T14:17:46;26.20;21.90
32293;DHT22;43233;48.608;8.838;2023-03-16T14:20:23;26.30;22.00
32293;DHT22;43233;48.608;8.838;2023-03-16T14:22:53;26.30;21.20
32293;DHT22;43233;48.608;8.838;2023-03-16T14:25:21;26.20;21.30
32293;DHT22;43233;48.608;8.838;2023-03-16T14:27:57;25.90;21.40
32293;DHT22;43233;48.608;8.838;2023-03-16T14:30:25;25.90;22.50
32293;DHT22;43233;48.608;8.838;2023-03-16T14:33:03;26.00;21.10
32293;DHT22;43233;48.608;8.838;2023-03-16T14:35:53;26.30;21.80
32293;DHT22;43233;48.608;8.838;2023-03-16T14:38:25;26.70;23.30
32293;DHT22;43233;48.608;8.838;2023-03-16T14:40:57;26.80;20.60
32293;DHT22;43233;48.608;8.838;2023-03-16T14:43:30;26.90;20.00
32293;DHT22;43233;48.608;8.838;2023-03-16T14:45:57;26.70;21.70
32293;DHT22;43233;48.608;8.838;2023-03-16T14:48:24;26.30;22.80
32293;DHT22;43233;48.608;8.838;2023-03-16T14:50:58;26.00;22.10
32293;DHT22;43233;48.608;8.838;2023-03-16T14:53:26;25.50;21.80
32293;DHT22;43233;48.608;8.838;2023-03-16T14:55:56;25.20;21.60
32293;DHT22;43233;48.608;8.838;2023-03-16T14:58:23;24.80;22.60
32293;DHT22;43233;48.608;8.838;2023-03-16T15:00:49;24.20;23.60
32293;DHT22;43233;48.608;8.838;2023-03-16T15:03:30;23.90;23.10
32293;DHT22;43233;48.608;8.838;2023-03-16T15:05:57;23.50;23.10
32293;DHT22;43233;48.608;8.838;2023-03-16T15:08:27;23.10;23.20
32293;DHT22;43233;48.608;8.838;2023-03-16T15:10:56;22.70;23.40
32293;DHT22;43233;48.608;8.838;2023-03-16T15:13:23;22.30;23.70
32293;DHT22;43233;48.608;8.838;2023-03-16T15:16:00;22.00;24.70
32293;DHT22;43233;48.608;8.838;2023-03-16T15:18:28;21.90;24.80
32293;DHT22;43233;48.608;8.838;2023-03-16T15:20:54;21.80;25.40
32293;DHT22;43233;48.608;8.838;2023-03-16T15:23:20;21.70;24.30
32293;DHT22;43233;48.608;8.838;2023-03-16T15:25:47;21.60;24.20
32293;DHT22;43233;48.608;8.838;2023-03-16T15:28:18;21.30;25.20
32293;DHT22;43233;48.608;8.838;2023-03-16T15:30:49;21.00;25.30
32293;DHT22;43233;48.608;8.838;2023-03-16T15:33:16;20.60;27.00
32293;DHT22;43233;48.608;8.838;2023-03-16T15:35:42;20.30;27.10
32293;DHT22;43233;48.608;8.838;2023-03-16T15:38:23;20.20;27.10
32293;DHT22;43233;48.608;8.838;2023-03-16T15:40:49;19.90;27.60
32293;DHT22;43233;48.608;8.838;2023-03-16T15:43:18;19.60;28.40
32293;DHT22;43233;48.608;8.838;2023-03-16T15:45:45;19.30;28.10
32293;DHT22;43233;48.608;8.838;2023-03-16T15:48:12;19.00;28.30
32293;DHT22;43233;48.608;8.838;2023-03-16T15:50:40;18.80;29.20
32293;DHT22;43233;48.608;8.838;2023-03-16T15:53:11;18.50;29.40
32293;DHT22;43233;48.608;8.838;2023-03-16T15:55:43;18.30;30.10
32293;DHT22;43233;48.608;8.838;2023-03-16T15:58:21;18.10;30.00
32293;DHT22;43233;48.608;8.838;2023-03-16T16:00:50;17.90;29.60
32293;DHT22;43233;48.608;8.838;2023-03-16T16:03:16;17.60;30.30
32293;DHT22;43233;48.608;8.838;2023-03-16T16:05:42;17.50;30.10
32293;DHT22;43233;48.608;8.838;2023-03-16T16:08:07;17.40;30.70
32293;DHT22;43233;48.608;8.838;2023-03-16T16:10:33;17.20;30.40
32293;DHT22;43233;48.608;8.838;2023-03-16T16:13:00;17.20;30.40
32293;DHT22;43233;48.608;8.838;2023-03-16T16:15:31;17.00;31.00
32293;DHT22;43233;48.608;8.838;2023-03-16T16:17:59;17.00;30.60
32293;DHT22;43233;48.608;8.838;2023-03-16T16:20:30;16.90;31.50
32293;DHT22;43233;48.608;8.838;2023-03-16T16:22:57;16.70;31.60
32293;DHT22;43233;48.608;8.838;2023-03-16T16:25:37;16.60;31.50
32293;DHT22;43233;48.608;8.838;2023-03-16T16:28:25;16.50;31.70
32293;DHT22;43233;48.608;8.838;2023-03-16T16:30:52;16.40;32.30
32293;DHT22;43233;48.608;8.838;2023-03-16T16:33:31;16.30;32.60
32293;DHT22;43233;48.608;8.838;2023-03-16T16:35:58;16.10;32.50
32293;DHT22;43233;48.608;8.838;2023-03-16T16:38:24;16.00;32.80
32293;DHT22;43233;48.608;8.838;2023-03-16T16:40:52;16.00;33.80
32293;DHT22;43233;48.608;8.838;2023-03-16T16:46:00;15.70;34.30
32293;DHT22;43233;48.608;8.838;2023-03-16T16:48:38;15.60;34.70
32293;DHT22;43233;48.608;8.838;2023-03-16T16:51:05;15.50;34.90
32293;DHT22;43233;48.608;8.838;2023-03-16T16:53:33;15.40;34.90
32293;DHT22;43233;48.608;8.838;2023-03-16T16:56:00;15.30;35.40
32293;DHT22;43233;48.608;8.838;2023-03-16T16:58:26;15.20;35.90
32293;DHT22;43233;48.608;8.838;2023-03-16T17:00:56;15.10;36.20
32293;DHT22;43233;48.608;8.838;2023-03-16T17:05:51;14.90;37.60
32293;DHT22;43233;48.608;8.838;2023-03-16T17:08:17;14.80;37.80